Ana Sayfa
METAR-TAF:

METAR-TAF

Havaalanları :

Dzaoudzi, Mayotte

Enlem: 12-48S, Boylam: 045-17E, yükseklik: 8 m

Güncel hava durumu gözlemi

Rapor saat 13:30 UTC de 34 dakika önce yapıldı.
Rüzgar güneydan 6 kt
Sıcaklık 30°C
Nem 79%
Basınç 1008 hPa
Görüş mesafesi 10 km veya daha fazla
2300 ft yükseklikte az bulutlu

METAR: FMCZ 211330Z AUTO 18006KT 9999 FEW023 30/26 Q1008 NOSIG

Saat: 17:04 (14:04 UTC)

Tahmin

Rapor saat 11:00 UTC de 3 saat ve 4 dakika önce yapıldı.
Ayın 21'si saat 12 UTC'den ayın 22'si saat 12 UTC'ye kadar geçerli Tahmin
Rüzgar güney/güneydoğudan 12 kt
Görüş mesafesi 10 km veya daha fazla
2500 ft yükseklikte parçalı bulutlu

TAF: FMCZ 211100Z 2112/2212 16012KT 9999 SCT025

4.000'den fazla havaalanı için hava durumu gözlemleri ve tahminleri (METAR ve TAF raporları).

Kullanılabilir istasyonlar harita üzerinde sarı ve kırmızı noktalarla gösterilir.

İstasyonun adını görmek için fareyi noktanın üzerinde gezdirin.

Sonrasında hava gözlem ve tahminlerini görmek için tıklayın.

Haritayı değiştirmek için: yaklaştırmak için siyah artı işaretli yeşil düğmeye ve uzaklaştırmak için de eksi işaretli düğmeye hızla tıklayın; bitişik haritalar için yeşil okları kullanın.


METAR-TAF: